ROMMA est une association bénévole à but non lucratif. Votre soutien est indispensable : ADHERER à ROMMA ou FAIRE un DON

Trept - (38, Isère)

Plateau de Crémieu (265 m)   Longitude: 5° 19' 27" E   Latitude: 45° 41' 15"N Station partenaire n°94
 

Détail journalier du     <<     >>

Température Precipitation Humidité Pression Vent Dir Rafale Dir. rafale
Heure (°C) (mm) (%) (hPa) (km/h) (km/h)
01:00 14.007010206NNE23NE
02:00 13.307110209NNE23NE
03:00 12.4074101911NNE29NE
04:00 12.3076101911NNE32NE
05:00 11.907710199NNE26NNE
06:00 11.4079101910NNE26NNE
07:00 10.708310197NNE23NNE
08:00 10.708310206NNE21ENE
09:00 11.108310207NNE21ENE
10:00 12.807910206NNE24NO
11:00 13.707510206NNE23NE
12:00 14.307310219NNE26NE
13:00 14.7073102010NNE29NNE
14:00 15.906810209NNE27NE
15:00 16.4068102010NNE27NNE
16:00 17.0066102010NNE29NE
17:00 17.9061102010NNE24NNE
18:00 17.4063102010NNE29NNE
19:00 17.406310206NNE18NE
20:00 17.206410206NNE18N
21:00 16.906510205NE16NNE
22:00 16.306710203NE11NNE
23:00 16.106710203NNE10NNE
minuit 15.207210201NNE5NNE

Graphique du 06-09-2019

 

Serveur OMMA